This is the latest recevied weather packets stored in our database for station/object N6RDS-8. If no packets are shown the sender has not sent any weather packets the latest 1 day(s).
| Time | Temp. | Humidity | Pressure | Rain* | Wind** | Luminosity | Snow |
|---|---|---|---|---|---|---|---|
| 1778045017 | 13.89° C | 52% | 1017.9 hPa | 0 mm | 0 m/s | 0 W/m² | - |
| 1778044715 | 13.89° C | 51% | 1018 hPa | 0 mm | 0.45 m/s, 107° | 0 W/m² | - |
| 1778044411 | 14.44° C | 51% | 1017.8 hPa | 0 mm | 0 m/s | 0 W/m² | - |
| 1778044108 | 13.89° C | 51% | 1017.8 hPa | 0 mm | 0.45 m/s, 139° | 0 W/m² | - |
| 1778043805 | 14.44° C | 50% | 1017.8 hPa | 0 mm | 0 m/s | 0 W/m² | - |
| 1778043502 | 15° C | 49% | 1017.8 hPa | 0 mm | 0.45 m/s, 84° | 0 W/m² | - |
| 1778043198 | 15° C | 49% | 1017.7 hPa | 0 mm | 0.45 m/s, 142° | 0 W/m² | - |
| 1778042896 | 15.56° C | 48% | 1017.6 hPa | 0 mm | 1.79 m/s, 295° | 0 W/m² | - |
| 1778042593 | 15.56° C | 48% | 1017.5 hPa | 0 mm | 1.34 m/s, 262° | 0 W/m² | - |
| 1778042290 | 15.56° C | 47% | 1017.5 hPa | 0 mm | 1.79 m/s, 349° | 0 W/m² | - |
| 1778041988 | 15.56° C | 48% | 1017.4 hPa | 0 mm | 0.89 m/s, 142° | 0 W/m² | - |
| 1778041686 | 15.56° C | 47% | 1017.5 hPa | 0 mm | 1.34 m/s, 205° | 0 W/m² | - |
| 1778041385 | 15.56° C | 47% | 1017.4 hPa | 0 mm | 0.89 m/s, 218° | 0 W/m² | - |
| 1778041083 | 15.56° C | 47% | 1017.4 hPa | 0 mm | 1.79 m/s, 249° | 0 W/m² | - |
| 1778040780 | 15.56° C | 47% | 1017.1 hPa | 0 mm | 0.89 m/s, 99° | 0 W/m² | - |
| 1778040477 | 15.56° C | 47% | 1017.2 hPa | 0 mm | 0.89 m/s, 185° | 0 W/m² | - |
| 1778040174 | 15.56° C | 47% | 1017.1 hPa | 0 mm | 0.89 m/s, 140° | 0 W/m² | - |
| 1778039871 | 15.56° C | 46% | 1017 hPa | 0 mm | 0.89 m/s, 133° | 0 W/m² | - |
| 1778039568 | 16.11° C | 46% | 1016.9 hPa | 0 mm | 1.79 m/s, 172° | 0 W/m² | - |
| 1778039265 | 16.11° C | 46% | 1016.9 hPa | 0 mm | 1.34 m/s, 320° | 0 W/m² | - |
| 1778038962 | 16.11° C | 46% | 1016.9 hPa | 0 mm | 1.34 m/s, 133° | 0 W/m² | - |
| 1778038659 | 16.11° C | 46% | 1016.7 hPa | 0 mm | 0.89 m/s, 80° | 0 W/m² | - |
| 1778038356 | 16.11° C | 46% | 1016.7 hPa | 0 mm | 0.45 m/s, 143° | 0 W/m² | - |
| 1778038052 | 16.67° C | 45% | 1016.7 hPa | 0 mm | 0.89 m/s, 133° | 0 W/m² | - |
| 1778037749 | 16.67° C | 44% | 1016.7 hPa | 0 mm | 0.89 m/s, 263° | 0 W/m² | - |
* Rain latest hour (hover to see other rain measurements)
** Current wind speed in m/s (hover to see current wind gust speed)